North Bonneville, WA

3:11 AM PDT on August 21, 2014 (GMT -0700)
Portland International | Change Station
CLOSE
Current Station
Airport
Location: Portland,
Elevation: 16 ft
Nearby Weather Stations

Elev 16 ft 45.60 °N, 122.61 °W | Updated 18 minutes ago

Clear
Clear
59 °F
Feels Like 59 °F
N
7
Wind Variable Wind from NNW

Today
High -- | Low -- °F
--% Chance of Precip.
Yesterday
High -- | Low -- °F
Precip. -- in
6:15 AM 8:05 PM
Waning Crescent, 15% visible
Pressure 30.04 in
Visibility 10.0 miles
Clouds Clear
Dew Point 52 °F
Humidity 78%
Rainfall 0.00 in
Snow Depth Not available.
UV 0 out of 12
Pollen 3.70 out of 12
Air Quality Not available.
Flu Activity Not available.
METAR KPDX 210953Z 33006KT 10SM CLR 15/11 A3005 RMK AO2 SLP173 T01500111

More Conditions Fewer Conditions

Pressure 30.04 in
Visibility 10.0 miles
Clouds Clear
Dew Point 52 °F
Humidity 78%
Rainfall 0.00 in
Snow Depth Not available.
UV 0 out of 12
Pollen 3.70 out of 12
Air Quality Not available.
Flu Activity Not available.
METAR KPDX 210953Z 33006KT 10SM CLR 15/11 A3005 RMK AO2 SLP173 T01500111

More Conditions Fewer Conditions

10-Day Weather Forecast

Almanac

Astronomy

Aug. 21, 2014 Rise Set
Actual Time 6:15 AM PDT 8:05 PM PDT
Civil Twilight 5:43 AM PDT 8:36 PM PDT
Nautical Twilight 5:05 AM PDT 9:15 PM PDT
Astronomical Twilight 4:22 AM PDT 9:57 PM PDT
Moon 2:45 AM PDT 5:42 PM PDT
Length of Visible Light 14h 53m
Length of Day
13h 49m
Tomorrow will be 2m 58s shorter.
Waning Crescent, 15% of the Moon is Illuminated
Today
Waning Crescent
Aug 25
New
Sep 2
First Quarter
Sep 8
Full
Sep 15
Last Quarter

Today's Extremes

State Highs State Lows

Community

WunderPhotos

Upload Photos

1,745,871 photos uploaded!

Nearby

Snow Depth

Station Depth Elevation
Surprise Lakes 1 in 4250 ft
June Lake 0 in 3340 ft
Spencer Meadow 0 in 3400 ft
Swift Creek 1 in 3770 ft
Sheep Canyon 0 in 4030 ft

Earthquake Activity

City Distance Mag. Time & Date
No recent earthquake activity has been reported nearby.
Minimum magnitude displayed is 2.5.

Coastal Water Temperatures

Place Temperature
No Stations Reporting

Nearby Weather Stations